sensor_id;sensor_type;location;lat;lon;timestamp;P1;durP1;ratioP1;P2;durP2;ratioP2
16824;SDS011;8529;48.108;-1.706;2022-07-19T00:00:00;9.73;;;5.78;;
16824;SDS011;8529;48.108;-1.706;2022-07-19T00:02:29;13.05;;;6.13;;
16824;SDS011;8529;48.108;-1.706;2022-07-19T00:04:56;8.52;;;5.28;;
16824;SDS011;8529;48.108;-1.706;2022-07-19T00:07:23;8.80;;;6.18;;
16824;SDS011;8529;48.108;-1.706;2022-07-19T00:09:50;10.57;;;5.78;;
16824;SDS011;8529;48.108;-1.706;2022-07-19T00:12:17;10.15;;;5.68;;
16824;SDS011;8529;48.108;-1.706;2022-07-19T00:14:45;11.07;;;5.75;;
16824;SDS011;8529;48.108;-1.706;2022-07-19T00:17:12;11.50;;;6.03;;
16824;SDS011;8529;48.108;-1.706;2022-07-19T00:19:39;8.95;;;5.57;;
16824;SDS011;8529;48.108;-1.706;2022-07-19T00:22:06;8.77;;;4.97;;
16824;SDS011;8529;48.108;-1.706;2022-07-19T00:24:33;8.82;;;5.68;;
16824;SDS011;8529;48.108;-1.706;2022-07-19T00:27:00;11.23;;;6.25;;
16824;SDS011;8529;48.108;-1.706;2022-07-19T00:29:27;9.88;;;5.95;;
16824;SDS011;8529;48.108;-1.706;2022-07-19T00:31:55;8.68;;;5.60;;
16824;SDS011;8529;48.108;-1.706;2022-07-19T00:34:22;12.50;;;6.18;;
16824;SDS011;8529;48.108;-1.706;2022-07-19T00:36:49;10.55;;;6.05;;
16824;SDS011;8529;48.108;-1.706;2022-07-19T00:39:16;10.45;;;6.03;;
16824;SDS011;8529;48.108;-1.706;2022-07-19T00:41:43;7.32;;;5.20;;
16824;SDS011;8529;48.108;-1.706;2022-07-19T00:44:10;9.10;;;6.03;;
16824;SDS011;8529;48.108;-1.706;2022-07-19T00:46:37;9.20;;;5.82;;
16824;SDS011;8529;48.108;-1.706;2022-07-19T00:49:06;9.15;;;5.82;;
16824;SDS011;8529;48.108;-1.706;2022-07-19T00:51:33;8.93;;;6.35;;
16824;SDS011;8529;48.108;-1.706;2022-07-19T00:54:03;10.90;;;5.68;;
16824;SDS011;8529;48.108;-1.706;2022-07-19T00:56:30;11.50;;;5.75;;
16824;SDS011;8529;48.108;-1.706;2022-07-19T00:58:59;9.65;;;5.97;;
16824;SDS011;8529;48.108;-1.706;2022-07-19T01:01:28;10.32;;;5.90;;
16824;SDS011;8529;48.108;-1.706;2022-07-19T01:03:55;9.68;;;5.57;;
16824;SDS011;8529;48.108;-1.706;2022-07-19T01:06:25;8.27;;;5.65;;
16824;SDS011;8529;48.108;-1.706;2022-07-19T01:08:52;9.32;;;6.05;;
16824;SDS011;8529;48.108;-1.706;2022-07-19T01:11:19;9.02;;;5.78;;
16824;SDS011;8529;48.108;-1.706;2022-07-19T01:13:46;8.95;;;6.28;;
16824;SDS011;8529;48.108;-1.706;2022-07-19T01:16:14;8.23;;;5.82;;
16824;SDS011;8529;48.108;-1.706;2022-07-19T01:18:41;10.70;;;5.75;;
16824;SDS011;8529;48.108;-1.706;2022-07-19T01:21:13;11.65;;;6.38;;
16824;SDS011;8529;48.108;-1.706;2022-07-19T01:23:45;8.15;;;5.80;;
16824;SDS011;8529;48.108;-1.706;2022-07-19T01:26:12;9.93;;;5.85;;
16824;SDS011;8529;48.108;-1.706;2022-07-19T01:28:39;8.80;;;6.07;;
16824;SDS011;8529;48.108;-1.706;2022-07-19T01:31:06;9.02;;;5.88;;
16824;SDS011;8529;48.108;-1.706;2022-07-19T01:33:37;9.90;;;6.03;;
16824;SDS011;8529;48.108;-1.706;2022-07-19T01:36:05;10.15;;;5.88;;
16824;SDS011;8529;48.108;-1.706;2022-07-19T01:38:35;9.98;;;6.50;;
16824;SDS011;8529;48.108;-1.706;2022-07-19T01:41:02;9.55;;;6.07;;
16824;SDS011;8529;48.108;-1.706;2022-07-19T01:43:29;11.55;;;6.47;;
16824;SDS011;8529;48.108;-1.706;2022-07-19T01:45:56;11.38;;;6.00;;
16824;SDS011;8529;48.108;-1.706;2022-07-19T01:48:23;10.02;;;5.88;;
16824;SDS011;8529;48.108;-1.706;2022-07-19T01:50:51;9.45;;;5.53;;
16824;SDS011;8529;48.108;-1.706;2022-07-19T01:53:18;8.27;;;5.50;;
16824;SDS011;8529;48.108;-1.706;2022-07-19T01:55:46;11.32;;;6.07;;
16824;SDS011;8529;48.108;-1.706;2022-07-19T01:58:13;9.85;;;6.25;;
16824;SDS011;8529;48.108;-1.706;2022-07-19T02:00:40;12.38;;;5.82;;
16824;SDS011;8529;48.108;-1.706;2022-07-19T02:03:07;10.95;;;5.72;;
16824;SDS011;8529;48.108;-1.706;2022-07-19T02:05:34;10.63;;;6.68;;
16824;SDS011;8529;48.108;-1.706;2022-07-19T02:08:01;10.25;;;5.65;;
16824;SDS011;8529;48.108;-1.706;2022-07-19T02:10:28;8.88;;;5.88;;
16824;SDS011;8529;48.108;-1.706;2022-07-19T02:12:57;10.25;;;5.75;;
16824;SDS011;8529;48.108;-1.706;2022-07-19T02:15:24;12.77;;;5.75;;
16824;SDS011;8529;48.108;-1.706;2022-07-19T02:17:51;10.35;;;5.47;;
16824;SDS011;8529;48.108;-1.706;2022-07-19T02:20:18;9.88;;;5.53;;
16824;SDS011;8529;48.108;-1.706;2022-07-19T02:22:45;12.43;;;5.93;;
16824;SDS011;8529;48.108;-1.706;2022-07-19T02:25:12;9.15;;;5.47;;
16824;SDS011;8529;48.108;-1.706;2022-07-19T02:27:39;9.48;;;5.88;;
16824;SDS011;8529;48.108;-1.706;2022-07-19T02:30:08;7.90;;;5.82;;
16824;SDS011;8529;48.108;-1.706;2022-07-19T02:32:37;9.15;;;5.50;;
16824;SDS011;8529;48.108;-1.706;2022-07-19T02:35:05;9.00;;;5.35;;
16824;SDS011;8529;48.108;-1.706;2022-07-19T02:37:33;8.38;;;5.78;;
16824;SDS011;8529;48.108;-1.706;2022-07-19T02:40:00;11.65;;;5.68;;
16824;SDS011;8529;48.108;-1.706;2022-07-19T02:42:27;9.57;;;5.40;;
16824;SDS011;8529;48.108;-1.706;2022-07-19T02:44:54;11.13;;;5.72;;
16824;SDS011;8529;48.108;-1.706;2022-07-19T02:47:22;8.98;;;5.28;;
16824;SDS011;8529;48.108;-1.706;2022-07-19T02:49:49;10.35;;;5.82;;
16824;SDS011;8529;48.108;-1.706;2022-07-19T02:52:16;12.25;;;5.72;;
16824;SDS011;8529;48.108;-1.706;2022-07-19T02:54:43;10.70;;;6.15;;
16824;SDS011;8529;48.108;-1.706;2022-07-19T02:57:10;8.07;;;5.50;;
16824;SDS011;8529;48.108;-1.706;2022-07-19T02:59:37;10.40;;;5.57;;
16824;SDS011;8529;48.108;-1.706;2022-07-19T03:02:04;9.13;;;5.30;;
16824;SDS011;8529;48.108;-1.706;2022-07-19T03:04:32;7.20;;;5.70;;
16824;SDS011;8529;48.108;-1.706;2022-07-19T03:06:59;11.32;;;5.72;;
16824;SDS011;8529;48.108;-1.706;2022-07-19T03:09:26;8.48;;;5.68;;
16824;SDS011;8529;48.108;-1.706;2022-07-19T03:11:53;10.52;;;6.00;;
16824;SDS011;8529;48.108;-1.706;2022-07-19T03:14:20;13.73;;;5.75;;
16824;SDS011;8529;48.108;-1.706;2022-07-19T03:16:47;9.05;;;5.30;;
16824;SDS011;8529;48.108;-1.706;2022-07-19T03:19:14;9.63;;;5.60;;
16824;SDS011;8529;48.108;-1.706;2022-07-19T03:21:42;10.77;;;5.65;;
16824;SDS011;8529;48.108;-1.706;2022-07-19T03:24:09;9.23;;;5.72;;
16824;SDS011;8529;48.108;-1.706;2022-07-19T03:26:36;7.78;;;5.43;;
16824;SDS011;8529;48.108;-1.706;2022-07-19T03:29:03;8.57;;;5.60;;
16824;SDS011;8529;48.108;-1.706;2022-07-19T03:31:30;10.73;;;5.88;;
16824;SDS011;8529;48.108;-1.706;2022-07-19T03:33:57;13.07;;;5.85;;
16824;SDS011;8529;48.108;-1.706;2022-07-19T03:36:23;10.35;;;5.50;;
16824;SDS011;8529;48.108;-1.706;2022-07-19T03:38:52;8.52;;;5.75;;
16824;SDS011;8529;48.108;-1.706;2022-07-19T03:41:19;12.25;;;5.70;;
16824;SDS011;8529;48.108;-1.706;2022-07-19T03:43:46;11.18;;;6.03;;
16824;SDS011;8529;48.108;-1.706;2022-07-19T03:46:13;6.93;;;6.00;;
16824;SDS011;8529;48.108;-1.706;2022-07-19T03:48:40;9.75;;;6.28;;
16824;SDS011;8529;48.108;-1.706;2022-07-19T03:51:07;7.63;;;5.38;;
16824;SDS011;8529;48.108;-1.706;2022-07-19T03:53:34;8.65;;;4.93;;
16824;SDS011;8529;48.108;-1.706;2022-07-19T03:56:02;11.75;;;5.43;;
16824;SDS011;8529;48.108;-1.706;2022-07-19T03:58:30;8.82;;;5.50;;
16824;SDS011;8529;48.108;-1.706;2022-07-19T04:00:57;8.05;;;5.32;;
16824;SDS011;8529;48.108;-1.706;2022-07-19T04:03:24;8.27;;;5.60;;
16824;SDS011;8529;48.108;-1.706;2022-07-19T04:05:51;7.70;;;5.65;;
16824;SDS011;8529;48.108;-1.706;2022-07-19T04:08:18;7.63;;;5.45;;
16824;SDS011;8529;48.108;-1.706;2022-07-19T04:10:45;11.10;;;5.25;;
16824;SDS011;8529;48.108;-1.706;2022-07-19T04:13:13;9.68;;;5.65;;
16824;SDS011;8529;48.108;-1.706;2022-07-19T04:15:40;8.27;;;5.82;;
16824;SDS011;8529;48.108;-1.706;2022-07-19T04:18:07;10.27;;;5.53;;
16824;SDS011;8529;48.108;-1.706;2022-07-19T04:20:34;9.65;;;4.90;;
16824;SDS011;8529;48.108;-1.706;2022-07-19T04:23:00;10.88;;;5.40;;
16824;SDS011;8529;48.108;-1.706;2022-07-19T04:25:27;10.05;;;5.45;;
16824;SDS011;8529;48.108;-1.706;2022-07-19T04:27:54;9.73;;;5.68;;
16824;SDS011;8529;48.108;-1.706;2022-07-19T04:30:23;7.38;;;5.88;;
16824;SDS011;8529;48.108;-1.706;2022-07-19T04:32:49;7.15;;;5.75;;
16824;SDS011;8529;48.108;-1.706;2022-07-19T04:35:16;11.07;;;5.38;;
16824;SDS011;8529;48.108;-1.706;2022-07-19T04:37:43;10.45;;;5.57;;
16824;SDS011;8529;48.108;-1.706;2022-07-19T04:40:11;11.40;;;5.53;;
16824;SDS011;8529;48.108;-1.706;2022-07-19T04:42:38;11.95;;;5.82;;
16824;SDS011;8529;48.108;-1.706;2022-07-19T04:45:05;6.70;;;5.50;;
16824;SDS011;8529;48.108;-1.706;2022-07-19T04:47:34;9.18;;;5.50;;
16824;SDS011;8529;48.108;-1.706;2022-07-19T04:50:01;10.20;;;5.90;;
16824;SDS011;8529;48.108;-1.706;2022-07-19T04:52:29;13.63;;;5.68;;
16824;SDS011;8529;48.108;-1.706;2022-07-19T04:54:55;8.60;;;5.55;;
16824;SDS011;8529;48.108;-1.706;2022-07-19T04:57:22;7.90;;;5.63;;
16824;SDS011;8529;48.108;-1.706;2022-07-19T04:59:49;8.73;;;5.18;;
16824;SDS011;8529;48.108;-1.706;2022-07-19T05:02:16;7.00;;;5.18;;
16824;SDS011;8529;48.108;-1.706;2022-07-19T05:04:44;7.43;;;5.50;;
16824;SDS011;8529;48.108;-1.706;2022-07-19T05:07:11;10.23;;;5.65;;
16824;SDS011;8529;48.108;-1.706;2022-07-19T05:09:38;9.68;;;5.72;;
16824;SDS011;8529;48.108;-1.706;2022-07-19T05:12:06;9.02;;;5.63;;
16824;SDS011;8529;48.108;-1.706;2022-07-19T05:14:34;12.57;;;5.70;;
16824;SDS011;8529;48.108;-1.706;2022-07-19T05:17:01;8.98;;;5.32;;
16824;SDS011;8529;48.108;-1.706;2022-07-19T05:19:28;10.40;;;5.65;;
16824;SDS011;8529;48.108;-1.706;2022-07-19T05:21:57;10.82;;;5.45;;
16824;SDS011;8529;48.108;-1.706;2022-07-19T05:24:23;9.90;;;6.38;;
16824;SDS011;8529;48.108;-1.706;2022-07-19T05:26:50;9.95;;;5.07;;
16824;SDS011;8529;48.108;-1.706;2022-07-19T05:29:17;9.00;;;5.47;;
16824;SDS011;8529;48.108;-1.706;2022-07-19T05:31:44;8.45;;;5.75;;
16824;SDS011;8529;48.108;-1.706;2022-07-19T05:34:11;7.90;;;5.35;;
16824;SDS011;8529;48.108;-1.706;2022-07-19T05:36:38;10.32;;;5.55;;
16824;SDS011;8529;48.108;-1.706;2022-07-19T05:39:07;7.45;;;5.10;;
16824;SDS011;8529;48.108;-1.706;2022-07-19T05:41:34;11.80;;;5.15;;
16824;SDS011;8529;48.108;-1.706;2022-07-19T05:44:01;10.40;;;5.90;;
16824;SDS011;8529;48.108;-1.706;2022-07-19T05:46:28;11.65;;;5.50;;
16824;SDS011;8529;48.108;-1.706;2022-07-19T05:48:55;7.82;;;5.15;;
16824;SDS011;8529;48.108;-1.706;2022-07-19T05:51:22;9.93;;;5.50;;
16824;SDS011;8529;48.108;-1.706;2022-07-19T05:53:49;9.52;;;6.05;;
16824;SDS011;8529;48.108;-1.706;2022-07-19T05:56:17;10.60;;;5.88;;
16824;SDS011;8529;48.108;-1.706;2022-07-19T05:58:44;8.75;;;5.30;;
16824;SDS011;8529;48.108;-1.706;2022-07-19T06:01:11;10.85;;;5.90;;
16824;SDS011;8529;48.108;-1.706;2022-07-19T06:03:43;10.10;;;5.82;;
16824;SDS011;8529;48.108;-1.706;2022-07-19T06:06:11;8.02;;;4.80;;
16824;SDS011;8529;48.108;-1.706;2022-07-19T06:08:38;13.02;;;5.45;;
16824;SDS011;8529;48.108;-1.706;2022-07-19T06:11:05;11.77;;;5.95;;
16824;SDS011;8529;48.108;-1.706;2022-07-19T06:13:33;11.23;;;6.57;;
16824;SDS011;8529;48.108;-1.706;2022-07-19T06:16:00;10.20;;;6.00;;
16824;SDS011;8529;48.108;-1.706;2022-07-19T06:18:27;10.18;;;5.78;;
16824;SDS011;8529;48.108;-1.706;2022-07-19T06:20:59;9.75;;;6.22;;
16824;SDS011;8529;48.108;-1.706;2022-07-19T06:23:26;7.78;;;5.93;;
16824;SDS011;8529;48.108;-1.706;2022-07-19T06:25:53;12.05;;;6.10;;
16824;SDS011;8529;48.108;-1.706;2022-07-19T06:28:20;10.73;;;6.18;;
16824;SDS011;8529;48.108;-1.706;2022-07-19T06:30:48;9.45;;;6.45;;
16824;SDS011;8529;48.108;-1.706;2022-07-19T06:33:15;12.38;;;6.70;;
16824;SDS011;8529;48.108;-1.706;2022-07-19T06:35:42;13.95;;;6.32;;
16824;SDS011;8529;48.108;-1.706;2022-07-19T06:38:09;10.23;;;7.15;;
16824;SDS011;8529;48.108;-1.706;2022-07-19T06:40:36;10.05;;;7.45;;
16824;SDS011;8529;48.108;-1.706;2022-07-19T06:43:03;10.02;;;7.40;;
16824;SDS011;8529;48.108;-1.706;2022-07-19T06:45:30;12.23;;;7.55;;
16824;SDS011;8529;48.108;-1.706;2022-07-19T06:47:58;10.60;;;7.40;;
16824;SDS011;8529;48.108;-1.706;2022-07-19T06:50:25;17.02;;;8.20;;
16824;SDS011;8529;48.108;-1.706;2022-07-19T06:52:53;15.27;;;8.07;;
16824;SDS011;8529;48.108;-1.706;2022-07-19T06:55:20;13.00;;;7.63;;
16824;SDS011;8529;48.108;-1.706;2022-07-19T06:57:47;16.60;;;8.27;;
16824;SDS011;8529;48.108;-1.706;2022-07-19T07:00:14;10.15;;;8.65;;
16824;SDS011;8529;48.108;-1.706;2022-07-19T07:02:41;10.48;;;8.63;;
16824;SDS011;8529;48.108;-1.706;2022-07-19T07:05:10;13.35;;;9.43;;
16824;SDS011;8529;48.108;-1.706;2022-07-19T07:07:38;14.38;;;9.50;;
16824;SDS011;8529;48.108;-1.706;2022-07-19T07:10:06;9.85;;;7.93;;
16824;SDS011;8529;48.108;-1.706;2022-07-19T07:12:34;15.52;;;9.68;;
16824;SDS011;8529;48.108;-1.706;2022-07-19T07:15:02;16.05;;;10.68;;
16824;SDS011;8529;48.108;-1.706;2022-07-19T07:17:29;15.52;;;11.10;;
16824;SDS011;8529;48.108;-1.706;2022-07-19T07:19:56;16.40;;;12.05;;
16824;SDS011;8529;48.108;-1.706;2022-07-19T07:22:24;12.77;;;11.48;;
16824;SDS011;8529;48.108;-1.706;2022-07-19T07:24:51;18.80;;;11.20;;
16824;SDS011;8529;48.108;-1.706;2022-07-19T07:27:18;14.18;;;11.15;;
16824;SDS011;8529;48.108;-1.706;2022-07-19T07:29:45;17.02;;;14.02;;
16824;SDS011;8529;48.108;-1.706;2022-07-19T07:32:12;20.73;;;16.70;;
16824;SDS011;8529;48.108;-1.706;2022-07-19T07:34:39;22.23;;;18.67;;
16824;SDS011;8529;48.108;-1.706;2022-07-19T07:37:06;26.50;;;20.23;;
16824;SDS011;8529;48.108;-1.706;2022-07-19T07:39:34;25.40;;;21.42;;
16824;SDS011;8529;48.108;-1.706;2022-07-19T07:42:01;25.00;;;20.58;;
16824;SDS011;8529;48.108;-1.706;2022-07-19T07:44:29;27.73;;;24.30;;
16824;SDS011;8529;48.108;-1.706;2022-07-19T07:46:56;28.63;;;25.23;;
16824;SDS011;8529;48.108;-1.706;2022-07-19T07:49:23;30.45;;;24.08;;
16824;SDS011;8529;48.108;-1.706;2022-07-19T07:51:51;27.70;;;24.65;;
16824;SDS011;8529;48.108;-1.706;2022-07-19T07:54:18;27.35;;;24.33;;
16824;SDS011;8529;48.108;-1.706;2022-07-19T07:56:47;26.35;;;23.48;;
16824;SDS011;8529;48.108;-1.706;2022-07-19T07:59:13;29.30;;;25.13;;
16824;SDS011;8529;48.108;-1.706;2022-07-19T08:01:41;31.20;;;27.20;;
16824;SDS011;8529;48.108;-1.706;2022-07-19T08:04:08;26.35;;;22.65;;
16824;SDS011;8529;48.108;-1.706;2022-07-19T08:06:35;29.60;;;26.42;;
16824;SDS011;8529;48.108;-1.706;2022-07-19T08:09:02;32.03;;;26.52;;
16824;SDS011;8529;48.108;-1.706;2022-07-19T08:11:30;26.42;;;23.58;;
16824;SDS011;8529;48.108;-1.706;2022-07-19T08:13:58;29.05;;;25.23;;
16824;SDS011;8529;48.108;-1.706;2022-07-19T08:16:25;30.20;;;26.98;;
16824;SDS011;8529;48.108;-1.706;2022-07-19T08:18:52;29.35;;;26.20;;
16824;SDS011;8529;48.108;-1.706;2022-07-19T08:21:19;23.85;;;20.20;;
16824;SDS011;8529;48.108;-1.706;2022-07-19T08:23:46;28.27;;;25.38;;
16824;SDS011;8529;48.108;-1.706;2022-07-19T08:26:13;32.55;;;26.88;;
16824;SDS011;8529;48.108;-1.706;2022-07-19T08:28:39;32.03;;;27.10;;
16824;SDS011;8529;48.108;-1.706;2022-07-19T08:31:08;31.23;;;27.83;;
16824;SDS011;8529;48.108;-1.706;2022-07-19T08:33:36;34.20;;;29.02;;
16824;SDS011;8529;48.108;-1.706;2022-07-19T08:36:04;31.90;;;27.58;;
16824;SDS011;8529;48.108;-1.706;2022-07-19T08:38:32;33.28;;;27.92;;
16824;SDS011;8529;48.108;-1.706;2022-07-19T08:40:59;32.65;;;28.30;;
16824;SDS011;8529;48.108;-1.706;2022-07-19T08:43:27;32.17;;;27.88;;
16824;SDS011;8529;48.108;-1.706;2022-07-19T08:45:54;32.00;;;26.70;;
16824;SDS011;8529;48.108;-1.706;2022-07-19T08:48:26;29.60;;;26.60;;
16824;SDS011;8529;48.108;-1.706;2022-07-19T08:50:56;31.58;;;28.17;;
16824;SDS011;8529;48.108;-1.706;2022-07-19T08:53:27;30.63;;;26.83;;
16824;SDS011;8529;48.108;-1.706;2022-07-19T08:55:56;28.02;;;24.50;;
16824;SDS011;8529;48.108;-1.706;2022-07-19T08:58:23;27.75;;;24.58;;
16824;SDS011;8529;48.108;-1.706;2022-07-19T09:00:49;26.77;;;22.90;;
16824;SDS011;8529;48.108;-1.706;2022-07-19T09:03:16;25.08;;;21.33;;
16824;SDS011;8529;48.108;-1.706;2022-07-19T09:05:44;24.35;;;20.77;;
16824;SDS011;8529;48.108;-1.706;2022-07-19T09:08:12;22.45;;;19.98;;
16824;SDS011;8529;48.108;-1.706;2022-07-19T09:10:41;23.20;;;20.85;;
16824;SDS011;8529;48.108;-1.706;2022-07-19T09:13:10;22.33;;;19.92;;
16824;SDS011;8529;48.108;-1.706;2022-07-19T09:15:43;23.55;;;20.27;;
16824;SDS011;8529;48.108;-1.706;2022-07-19T09:18:13;24.73;;;20.27;;
16824;SDS011;8529;48.108;-1.706;2022-07-19T09:20:45;24.35;;;20.83;;
16824;SDS011;8529;48.108;-1.706;2022-07-19T09:23:13;22.90;;;19.25;;
16824;SDS011;8529;48.108;-1.706;2022-07-19T09:25:41;23.33;;;19.10;;
16824;SDS011;8529;48.108;-1.706;2022-07-19T09:28:10;20.52;;;18.45;;
16824;SDS011;8529;48.108;-1.706;2022-07-19T09:30:38;21.40;;;18.95;;
16824;SDS011;8529;48.108;-1.706;2022-07-19T09:33:07;21.77;;;18.90;;
16824;SDS011;8529;48.108;-1.706;2022-07-19T09:35:38;19.75;;;17.75;;
16824;SDS011;8529;48.108;-1.706;2022-07-19T09:38:24;19.92;;;17.48;;
16824;SDS011;8529;48.108;-1.706;2022-07-19T09:40:53;19.52;;;17.42;;
16824;SDS011;8529;48.108;-1.706;2022-07-19T09:43:21;19.67;;;17.55;;
16824;SDS011;8529;48.108;-1.706;2022-07-19T09:45:51;19.25;;;16.73;;
16824;SDS011;8529;48.108;-1.706;2022-07-19T09:48:18;18.45;;;16.52;;
16824;SDS011;8529;48.108;-1.706;2022-07-19T09:50:46;19.00;;;16.25;;
16824;SDS011;8529;48.108;-1.706;2022-07-19T09:53:16;17.45;;;15.52;;
16824;SDS011;8529;48.108;-1.706;2022-07-19T09:55:45;16.20;;;14.30;;
16824;SDS011;8529;48.108;-1.706;2022-07-19T09:58:15;17.75;;;14.63;;
16824;SDS011;8529;48.108;-1.706;2022-07-19T10:00:43;19.23;;;14.23;;
16824;SDS011;8529;48.108;-1.706;2022-07-19T10:03:11;15.88;;;14.10;;
16824;SDS011;8529;48.108;-1.706;2022-07-19T10:05:40;16.35;;;13.90;;
16824;SDS011;8529;48.108;-1.706;2022-07-19T10:08:07;16.63;;;13.10;;
16824;SDS011;8529;48.108;-1.706;2022-07-19T10:10:34;18.38;;;13.90;;
16824;SDS011;8529;48.108;-1.706;2022-07-19T10:13:03;16.35;;;13.18;;
16824;SDS011;8529;48.108;-1.706;2022-07-19T10:15:34;14.85;;;13.10;;
16824;SDS011;8529;48.108;-1.706;2022-07-19T10:18:09;18.27;;;14.63;;
16824;SDS011;8529;48.108;-1.706;2022-07-19T10:20:38;16.15;;;13.00;;
16824;SDS011;8529;48.108;-1.706;2022-07-19T10:23:08;19.75;;;12.40;;
16824;SDS011;8529;48.108;-1.706;2022-07-19T10:25:39;18.52;;;13.57;;
16824;SDS011;8529;48.108;-1.706;2022-07-19T10:31:11;17.85;;;12.65;;
16824;SDS011;8529;48.108;-1.706;2022-07-19T10:33:57;15.70;;;13.30;;
16824;SDS011;8529;48.108;-1.706;2022-07-19T10:36:36;14.60;;;12.80;;
16824;SDS011;8529;48.108;-1.706;2022-07-19T10:42:05;14.98;;;12.60;;
16824;SDS011;8529;48.108;-1.706;2022-07-19T10:44:35;19.30;;;14.32;;
16824;SDS011;8529;48.108;-1.706;2022-07-19T10:47:17;19.65;;;13.68;;
16824;SDS011;8529;48.108;-1.706;2022-07-19T10:49:45;16.40;;;13.70;;
16824;SDS011;8529;48.108;-1.706;2022-07-19T10:52:32;15.63;;;12.43;;
16824;SDS011;8529;48.108;-1.706;2022-07-19T10:58:07;17.92;;;12.15;;
16824;SDS011;8529;48.108;-1.706;2022-07-19T11:00:46;18.85;;;13.07;;
16824;SDS011;8529;48.108;-1.706;2022-07-19T11:03:27;16.02;;;13.20;;
16824;SDS011;8529;48.108;-1.706;2022-07-19T11:05:55;17.60;;;13.13;;
16824;SDS011;8529;48.108;-1.706;2022-07-19T11:08:30;19.38;;;13.82;;
16824;SDS011;8529;48.108;-1.706;2022-07-19T11:11:02;18.15;;;13.80;;
16824;SDS011;8529;48.108;-1.706;2022-07-19T11:13:30;17.38;;;12.73;;
16824;SDS011;8529;48.108;-1.706;2022-07-19T11:15:58;16.35;;;12.73;;
16824;SDS011;8529;48.108;-1.706;2022-07-19T11:18:28;19.75;;;13.77;;
16824;SDS011;8529;48.108;-1.706;2022-07-19T11:20:56;20.67;;;13.27;;
16824;SDS011;8529;48.108;-1.706;2022-07-19T11:23:24;17.63;;;13.60;;
16824;SDS011;8529;48.108;-1.706;2022-07-19T11:26:04;16.17;;;13.52;;
16824;SDS011;8529;48.108;-1.706;2022-07-19T11:28:32;17.75;;;13.40;;
16824;SDS011;8529;48.108;-1.706;2022-07-19T11:31:01;18.33;;;13.35;;
16824;SDS011;8529;48.108;-1.706;2022-07-19T11:33:37;16.63;;;13.82;;
16824;SDS011;8529;48.108;-1.706;2022-07-19T11:36:04;16.98;;;13.57;;
16824;SDS011;8529;48.108;-1.706;2022-07-19T11:38:38;21.10;;;13.80;;
16824;SDS011;8529;48.108;-1.706;2022-07-19T11:41:11;18.67;;;14.18;;
16824;SDS011;8529;48.108;-1.706;2022-07-19T11:43:39;20.50;;;14.48;;
16824;SDS011;8529;48.108;-1.706;2022-07-19T11:46:08;15.85;;;12.13;;
16824;SDS011;8529;48.108;-1.706;2022-07-19T11:48:35;18.20;;;13.73;;
16824;SDS011;8529;48.108;-1.706;2022-07-19T11:51:03;21.05;;;13.70;;
16824;SDS011;8529;48.108;-1.706;2022-07-19T11:53:33;20.90;;;13.30;;
16824;SDS011;8529;48.108;-1.706;2022-07-19T11:56:02;19.38;;;12.88;;
16824;SDS011;8529;48.108;-1.706;2022-07-19T11:58:30;22.20;;;14.02;;
16824;SDS011;8529;48.108;-1.706;2022-07-19T12:01:01;17.42;;;12.88;;
16824;SDS011;8529;48.108;-1.706;2022-07-19T12:03:31;15.85;;;12.05;;
16824;SDS011;8529;48.108;-1.706;2022-07-19T12:05:59;18.23;;;13.70;;
16824;SDS011;8529;48.108;-1.706;2022-07-19T12:08:37;22.83;;;12.88;;
16824;SDS011;8529;48.108;-1.706;2022-07-19T12:11:17;16.70;;;12.82;;
16824;SDS011;8529;48.108;-1.706;2022-07-19T12:13:46;18.20;;;13.32;;
16824;SDS011;8529;48.108;-1.706;2022-07-19T12:16:13;16.55;;;12.75;;
16824;SDS011;8529;48.108;-1.706;2022-07-19T12:18:43;16.77;;;12.55;;
16824;SDS011;8529;48.108;-1.706;2022-07-19T12:21:18;17.75;;;13.30;;
16824;SDS011;8529;48.108;-1.706;2022-07-19T12:24:09;16.58;;;12.10;;
16824;SDS011;8529;48.108;-1.706;2022-07-19T12:26:42;18.77;;;13.65;;
16824;SDS011;8529;48.108;-1.706;2022-07-19T12:29:18;18.63;;;12.98;;
16824;SDS011;8529;48.108;-1.706;2022-07-19T12:31:46;17.23;;;12.32;;
16824;SDS011;8529;48.108;-1.706;2022-07-19T12:34:16;23.58;;;14.00;;
16824;SDS011;8529;48.108;-1.706;2022-07-19T12:36:44;16.88;;;13.85;;
16824;SDS011;8529;48.108;-1.706;2022-07-19T12:39:17;19.02;;;13.40;;
16824;SDS011;8529;48.108;-1.706;2022-07-19T12:42:03;20.20;;;13.40;;
16824;SDS011;8529;48.108;-1.706;2022-07-19T12:44:31;18.63;;;13.05;;
16824;SDS011;8529;48.108;-1.706;2022-07-19T12:46:59;16.58;;;12.90;;
16824;SDS011;8529;48.108;-1.706;2022-07-19T12:49:41;17.08;;;11.95;;
16824;SDS011;8529;48.108;-1.706;2022-07-19T12:52:08;15.30;;;12.57;;
16824;SDS011;8529;48.108;-1.706;2022-07-19T12:54:35;18.05;;;12.32;;
16824;SDS011;8529;48.108;-1.706;2022-07-19T12:57:02;17.77;;;13.02;;
16824;SDS011;8529;48.108;-1.706;2022-07-19T12:59:29;16.92;;;12.00;;
16824;SDS011;8529;48.108;-1.706;2022-07-19T13:02:07;16.90;;;12.57;;
16824;SDS011;8529;48.108;-1.706;2022-07-19T13:04:34;14.98;;;11.45;;
16824;SDS011;8529;48.108;-1.706;2022-07-19T13:07:03;12.75;;;11.40;;
16824;SDS011;8529;48.108;-1.706;2022-07-19T13:09:32;13.40;;;11.77;;
16824;SDS011;8529;48.108;-1.706;2022-07-19T13:11:59;14.30;;;11.77;;
16824;SDS011;8529;48.108;-1.706;2022-07-19T13:14:27;15.02;;;11.23;;
16824;SDS011;8529;48.108;-1.706;2022-07-19T13:16:54;16.38;;;11.45;;
16824;SDS011;8529;48.108;-1.706;2022-07-19T13:19:21;16.85;;;11.88;;
16824;SDS011;8529;48.108;-1.706;2022-07-19T13:21:49;14.95;;;10.98;;
16824;SDS011;8529;48.108;-1.706;2022-07-19T13:24:18;14.10;;;10.75;;
16824;SDS011;8529;48.108;-1.706;2022-07-19T13:26:45;15.45;;;10.90;;
16824;SDS011;8529;48.108;-1.706;2022-07-19T13:29:12;13.38;;;10.75;;
16824;SDS011;8529;48.108;-1.706;2022-07-19T13:31:40;17.13;;;11.07;;
16824;SDS011;8529;48.108;-1.706;2022-07-19T13:34:06;16.95;;;10.85;;
16824;SDS011;8529;48.108;-1.706;2022-07-19T13:36:33;13.98;;;10.93;;
16824;SDS011;8529;48.108;-1.706;2022-07-19T13:39:00;12.20;;;10.00;;
16824;SDS011;8529;48.108;-1.706;2022-07-19T13:41:29;11.60;;;10.23;;
16824;SDS011;8529;48.108;-1.706;2022-07-19T13:43:56;11.55;;;9.68;;
16824;SDS011;8529;48.108;-1.706;2022-07-19T13:46:23;13.10;;;10.43;;
16824;SDS011;8529;48.108;-1.706;2022-07-19T13:48:50;11.75;;;9.63;;
16824;SDS011;8529;48.108;-1.706;2022-07-19T13:51:18;12.55;;;10.18;;
16824;SDS011;8529;48.108;-1.706;2022-07-19T13:53:45;14.73;;;10.15;;
16824;SDS011;8529;48.108;-1.706;2022-07-19T13:56:13;12.23;;;10.07;;
16824;SDS011;8529;48.108;-1.706;2022-07-19T13:58:42;11.57;;;9.70;;
16824;SDS011;8529;48.108;-1.706;2022-07-19T14:01:09;16.65;;;10.65;;
16824;SDS011;8529;48.108;-1.706;2022-07-19T14:03:37;12.93;;;10.85;;
16824;SDS011;8529;48.108;-1.706;2022-07-19T14:06:04;14.00;;;9.82;;
16824;SDS011;8529;48.108;-1.706;2022-07-19T14:08:31;11.30;;;10.15;;
16824;SDS011;8529;48.108;-1.706;2022-07-19T14:10:58;15.23;;;11.65;;
16824;SDS011;8529;48.108;-1.706;2022-07-19T14:13:26;11.93;;;10.07;;
16824;SDS011;8529;48.108;-1.706;2022-07-19T14:15:55;12.73;;;9.52;;
16824;SDS011;8529;48.108;-1.706;2022-07-19T14:18:22;10.32;;;9.23;;
16824;SDS011;8529;48.108;-1.706;2022-07-19T14:20:49;11.77;;;9.90;;
16824;SDS011;8529;48.108;-1.706;2022-07-19T14:23:16;13.43;;;11.52;;
16824;SDS011;8529;48.108;-1.706;2022-07-19T14:25:42;13.65;;;10.75;;
16824;SDS011;8529;48.108;-1.706;2022-07-19T14:28:10;14.85;;;11.38;;
16824;SDS011;8529;48.108;-1.706;2022-07-19T14:30:37;15.90;;;11.45;;
16824;SDS011;8529;48.108;-1.706;2022-07-19T14:33:06;15.50;;;11.50;;
16824;SDS011;8529;48.108;-1.706;2022-07-19T14:35:33;12.00;;;9.82;;
16824;SDS011;8529;48.108;-1.706;2022-07-19T14:38:00;13.43;;;10.65;;
16824;SDS011;8529;48.108;-1.706;2022-07-19T14:40:27;11.63;;;10.32;;
16824;SDS011;8529;48.108;-1.706;2022-07-19T14:42:53;16.20;;;11.45;;
16824;SDS011;8529;48.108;-1.706;2022-07-19T14:45:20;15.38;;;11.02;;